Time;durP1;ratioP1;P1;durP2;ratioP2;P2;SDS_P1;SDS_P2;PMS_P1;PMS_P2;Temp;Humidity;BMP_temperature;BMP_pressure;BME280_temperature;BME280_humidity;BME280_pressure;Samples;Min_cycle;Max_cycle;Signal;HPM_P1;HPM_P2
2022/05/11 00:00:19;;;;;;;23.83;14.70;;;;;;;9.42;100.00;99209.53;2044871;29;20222;-68
2022/05/11 00:01:20;;;;;;;22.92;15.68;;;;;;;9.40;100.00;99209.03;2042065;29;20191;-68
2022/05/11 00:02:22;;;;;;;25.07;15.30;;;;;;;9.39;100.00;99212.78;2041970;29;20187;-68
2022/05/11 00:03:26;;;;;;;20.85;14.80;;;;;;;9.35;100.00;99206.44;2043828;29;20199;-68
2022/05/11 00:04:29;;;;;;;24.13;15.68;;;;;;;9.34;100.00;99205.63;2041004;29;20203;-68
2022/05/11 00:05:32;;;;;;;24.40;15.57;;;;;;;9.33;100.00;99204.06;2036094;29;20204;-68
2022/05/11 00:06:35;;;;;;;25.67;15.23;;;;;;;9.31;100.00;99200.09;2033930;29;20231;-68
2022/05/11 00:07:36;;;;;;;36.22;15.27;;;;;;;9.28;100.00;99204.09;2041343;29;20666;-68
2022/05/11 00:08:37;;;;;;;24.10;15.03;;;;;;;9.24;100.00;99195.09;2044348;29;20592;-68
2022/05/11 00:09:40;;;;;;;19.08;15.35;;;;;;;9.26;100.00;99202.81;2033271;29;20635;-68
2022/05/11 00:10:43;;;;;;;30.77;15.50;;;;;;;9.22;100.00;99199.94;2035494;29;20279;-68
2022/05/11 00:11:44;;;;;;;25.52;16.52;;;;;;;9.22;100.00;99201.81;2041759;29;20218;-68
2022/05/11 00:12:47;;;;;;;20.50;16.30;;;;;;;9.20;100.00;99202.06;2042100;29;20194;-68
2022/05/11 00:13:48;;;;;;;20.38;15.57;;;;;;;9.20;100.00;99204.72;2042487;29;20206;-68
2022/05/11 00:14:50;;;;;;;21.47;15.23;;;;;;;9.21;100.00;99200.19;2033538;29;20191;-69
2022/05/11 00:15:51;;;;;;;19.23;15.23;;;;;;;9.18;100.00;99203.44;2027110;29;20204;-69
2022/05/11 00:16:56;;;;;;;20.33;15.13;;;;;;;9.15;100.00;99193.34;2035055;29;20282;-68
2022/05/11 00:17:58;;;;;;;27.35;15.50;;;;;;;9.14;100.00;99199.75;2042159;29;20761;-68
2022/05/11 00:19:02;;;;;;;22.90;15.63;;;;;;;9.13;100.00;99190.97;2042856;29;20244;-68
2022/05/11 00:20:06;;;;;;;16.92;14.38;;;;;;;9.13;100.00;99198.97;2042042;29;20195;-68
2022/05/11 00:21:08;;;;;;;19.50;15.13;;;;;;;9.14;100.00;99189.09;2033292;29;20200;-68
2022/05/11 00:22:09;;;;;;;21.55;15.13;;;;;;;9.15;100.00;99196.00;2034195;29;20646;-68
2022/05/11 00:23:11;;;;;;;19.70;16.87;;;;;;;9.12;100.00;99193.91;2042107;29;20246;-68
2022/05/11 00:24:17;;;;;;;23.23;20.52;;;;;;;9.12;100.00;99196.56;2043409;29;20222;-68
2022/05/11 00:25:18;;;;;;;25.25;22.30;;;;;;;9.11;100.00;99190.44;2032987;29;20227;-68
2022/05/11 00:26:20;;;;;;;24.93;21.07;;;;;;;9.10;100.00;99188.88;2034191;29;20199;-68
2022/05/11 00:27:23;;;;;;;25.58;21.25;;;;;;;9.04;100.00;99190.00;2035319;29;20214;-68
2022/05/11 00:28:25;;;;;;;25.80;20.77;;;;;;;9.05;100.00;99192.38;2033662;29;20592;-68
2022/05/11 00:29:26;;;;;;;22.95;20.75;;;;;;;9.03;100.00;99189.22;2044367;29;20211;-68
2022/05/11 00:30:29;;;;;;;25.60;20.87;;;;;;;9.03;100.00;99191.88;2041895;29;20227;-68
2022/05/11 00:31:31;;;;;;;24.17;21.10;;;;;;;9.03;100.00;99183.91;2042189;29;20661;-68
2022/05/11 00:32:32;;;;;;;25.98;21.48;;;;;;;9.05;100.00;99189.72;2044435;29;20249;-68
2022/05/11 00:33:35;;;;;;;25.00;21.73;;;;;;;9.03;100.00;99183.91;2041358;29;20623;-68
2022/05/11 00:34:39;;;;;;;22.02;19.90;;;;;;;9.01;100.00;99194.00;2044608;29;20187;-68
2022/05/11 00:35:45;;;;;;;24.73;20.05;;;;;;;9.02;100.00;99186.81;2042262;29;20226;-68
2022/05/11 00:36:46;;;;;;;24.52;20.05;;;;;;;9.01;100.00;99180.72;2042236;29;20717;-68
2022/05/11 00:37:48;;;;;;;25.48;20.88;;;;;;;9.03;100.00;99183.91;2045108;29;20187;-68
2022/05/11 00:38:50;;;;;;;21.92;19.77;;;;;;;9.01;100.00;99180.72;2034375;29;20211;-68
2022/05/11 00:39:50;;;;;;;21.38;19.38;;;;;;;9.02;100.00;99184.94;2037620;29;20195;-68
2022/05/11 00:40:56;;;;;;;27.27;20.77;;;;;;;9.00;100.00;99188.97;2043043;29;20183;-68
2022/05/11 00:42:01;;;;;;;22.50;20.08;;;;;;;8.95;100.00;99189.03;2041759;29;20206;-68
2022/05/11 00:43:05;;;;;;;22.38;20.02;;;;;;;8.92;100.00;99187.72;2045370;29;20183;-68
2022/05/11 00:44:09;;;;;;;25.40;19.60;;;;;;;8.90;100.00;99184.56;2042890;29;20614;-68
2022/05/11 00:45:12;;;;;;;23.38;19.92;;;;;;;8.89;100.00;99187.50;2046095;29;20259;-68
2022/05/11 00:46:17;;;;;;;22.67;19.52;;;;;;;8.87;100.00;99185.13;2041875;29;20207;-68
2022/05/11 00:47:23;;;;;;;28.67;21.63;;;;;;;8.85;100.00;99189.13;2042502;29;20195;-68
2022/05/11 00:49:51;;;;;;;25.95;22.13;;;;;;;8.83;100.00;99185.97;2042901;29;20683;-68
2022/05/11 00:50:53;;;;;;;24.75;20.58;;;;;;;8.84;100.00;99191.00;2035862;29;20196;-68
2022/05/11 00:51:57;;;;;;;22.63;20.38;;;;;;;8.83;100.00;99189.41;2026378;29;20212;-68
2022/05/11 00:53:09;;;;;;;22.80;20.63;;;;;;;8.82;100.00;99187.03;2037263;29;20206;-68
2022/05/11 00:54:11;;;;;;;26.15;21.50;;;;;;;8.81;100.00;99188.91;2042996;29;20179;-68
2022/05/11 00:55:16;;;;;;;24.52;21.98;;;;;;;8.79;100.00;99193.72;2042934;29;20666;-68
2022/05/11 00:56:16;;;;;;;26.88;21.08;;;;;;;8.76;100.00;99187.06;2044982;29;20197;-67
2022/05/11 00:57:22;;;;;;;23.10;20.47;;;;;;;8.73;100.00;99190.31;2042826;29;20223;-68
2022/05/11 00:58:32;;;;;;;23.23;20.65;;;;;;;8.74;100.00;99197.22;2045678;29;20218;-68
2022/05/11 00:59:36;;;;;;;25.25;20.83;;;;;;;8.71;100.00;99194.31;2033990;29;20204;-68
2022/05/11 01:00:38;;;;;;;27.45;21.38;;;;;;;8.70;100.00;99203.38;2027767;29;20205;-68
2022/05/11 01:01:41;;;;;;;23.77;21.27;;;;;;;8.74;100.00;99199.06;2035808;29;20196;-68
2022/05/11 01:02:45;;;;;;;24.92;21.33;;;;;;;8.74;100.00;99189.22;2042784;29;20195;-68
2022/05/11 01:03:49;;;;;;;22.70;20.25;;;;;;;8.81;100.00;99199.53;2045327;29;20749;-68
2022/05/11 01:04:57;;;;;;;23.73;20.20;;;;;;;8.85;100.00;99191.78;2042973;29;20250;-68
2022/05/11 01:05:59;;;;;;;24.65;20.58;;;;;;;8.83;100.00;99189.41;2044048;29;20271;-69
2022/05/11 01:07:00;;;;;;;22.88;20.83;;;;;;;8.80;100.00;99191.84;2043516;29;20190;-69
2022/05/11 01:08:02;;;;;;;27.85;20.45;;;;;;;8.78;100.00;99190.25;2042734;29;20195;-68
2022/05/11 01:09:05;;;;;;;25.55;20.08;;;;;;;8.78;100.00;99192.13;2044732;29;20238;-68
2022/05/11 01:10:09;;;;;;;23.08;20.58;;;;;;;8.79;100.00;99183.06;2042816;29;20667;-68
2022/05/11 01:11:10;;;;;;;22.10;19.83;;;;;;;8.80;100.00;99189.97;2043970;29;20665;-68
2022/05/11 01:12:19;;;;;;;23.70;19.67;;;;;;;8.83;100.00;99186.75;2044050;29;20197;-68
2022/05/11 01:13:20;;;;;;;22.00;19.95;;;;;;;8.82;100.00;99184.38;2034124;29;20299;-68
2022/05/11 01:14:23;;;;;;;21.58;19.48;;;;;;;8.77;100.00;99185.19;2045305;29;20195;-68
2022/05/11 01:15:26;;;;;;;22.35;20.10;;;;;;;8.73;100.00;99184.19;2041846;29;20585;-68
2022/05/11 01:16:32;;;;;;;22.33;19.60;;;;;;;8.75;100.00;99190.00;2036639;29;20546;-68
2022/05/11 01:17:33;;;;;;;24.08;19.55;;;;;;;8.67;100.00;99187.97;2043404;29;20254;-68
2022/05/11 01:18:35;;;;;;;25.98;19.98;;;;;;;8.71;100.00;99189.00;2041976;29;20293;-68
2022/05/11 01:19:40;;;;;;;22.63;20.17;;;;;;;8.72;100.00;99180.75;2044531;29;20207;-68
2022/05/11 01:20:44;;;;;;;22.17;19.15;;;;;;;8.72;100.00;99187.94;2042145;29;20191;-68
2022/05/11 01:21:50;;;;;;;22.65;20.50;;;;;;;8.71;100.00;99181.03;2044289;29;20231;-68
2022/05/11 01:22:55;;;;;;;23.52;21.20;;;;;;;8.69;100.00;99178.66;2034080;29;20207;-68
2022/05/11 01:24:00;;;;;;;21.48;19.30;;;;;;;8.74;100.00;99180.44;2034838;29;20180;-68
2022/05/11 01:25:06;;;;;;;21.73;19.73;;;;;;;8.80;100.00;99178.53;2046603;29;20211;-68
2022/05/11 01:26:07;;;;;;;21.92;19.17;;;;;;;8.80;100.00;99184.66;2042657;29;20625;-68
2022/05/11 01:27:32;;;;;;;27.08;19.30;;;;;;;8.76;100.00;99187.06;2042372;29;20273;-68
2022/05/11 01:28:33;;;;;;;21.15;19.10;;;;;;;8.74;100.00;99183.13;2034125;29;20639;-68
2022/05/11 01:29:35;;;;;;;21.38;19.20;;;;;;;8.74;100.00;99175.13;2035326;29;20219;-68
2022/05/11 01:30:40;;;;;;;20.92;17.10;;;;;;;8.72;100.00;99177.28;2034880;29;20215;-68
2022/05/11 01:31:42;;;;;;;21.17;18.42;;;;;;;8.71;100.00;99181.03;2042454;29;20207;-68
2022/05/11 01:32:47;;;;;;;20.47;17.97;;;;;;;8.71;100.00;99179.16;2008308;29;1288789;-69
2022/05/11 01:33:50;;;;;;;27.08;18.17;;;;;;;8.69;100.00;99178.66;2043180;29;20575;-68
2022/05/11 01:34:59;;;;;;;20.67;18.58;;;;;;;8.68;100.00;99176.25;2035394;29;20636;-68
2022/05/11 01:36:05;;;;;;;21.15;19.02;;;;;;;8.68;100.00;99178.91;2035603;29;20311;-68
2022/05/11 01:37:10;;;;;;;19.80;17.77;;;;;;;8.68;100.00;99179.69;2042578;29;20202;-68
2022/05/11 01:38:38;;;;;;;20.25;18.33;;;;;;;8.64;100.00;99173.38;2045866;29;20191;-68
2022/05/11 01:39:43;;;;;;;20.23;18.15;;;;;;;8.63;100.00;99178.97;2033908;29;20215;-68
2022/05/11 01:40:46;;;;;;;22.73;19.25;;;;;;;8.60;100.00;99171.53;2044572;29;20298;-68
2022/05/11 01:41:51;;;;;;;22.52;18.23;;;;;;;8.58;100.00;99171.81;2042391;29;20198;-68
2022/05/11 01:42:54;;;;;;;21.05;18.73;;;;;;;8.57;100.00;99170.22;2044368;29;20192;-68
2022/05/11 01:43:56;;;;;;;20.35;18.38;;;;;;;8.56;100.00;99167.84;2042960;29;20203;-68
2022/05/11 01:44:57;;;;;;;20.58;18.55;;;;;;;8.56;100.00;99173.19;2042427;29;20258;-68
2022/05/11 01:46:00;;;;;;;21.17;18.93;;;;;;;8.52;100.00;99175.63;2045658;29;20191;-68
2022/05/11 01:47:01;;;;;;;18.77;16.85;;;;;;;8.43;100.00;99170.09;2042693;29;20681;-68
2022/05/11 01:48:05;;;;;;;20.25;18.17;;;;;;;8.44;100.00;99171.69;2035950;29;20212;-68
2022/05/11 01:49:06;;;;;;;21.00;17.88;;;;;;;8.42;100.00;99173.81;2035696;29;20278;-68
2022/05/11 01:50:11;;;;;;;17.55;15.85;;;;;;;8.42;100.00;99173.81;2043036;29;20742;-68
2022/05/11 01:51:15;;;;;;;18.55;16.75;;;;;;;8.40;100.00;99170.63;2045222;29;20319;-68
2022/05/11 01:52:16;;;;;;;19.85;17.92;;;;;;;8.38;100.00;99167.47;2043211;29;20271;-68
2022/05/11 01:53:22;;;;;;;18.13;16.27;;;;;;;8.35;100.00;99170.69;2035387;29;20227;-68
2022/05/11 01:54:23;;;;;;;20.13;18.17;;;;;;;8.32;100.00;99168.53;2035846;29;20199;-68
2022/05/11 01:55:25;;;;;;;20.60;18.55;;;;;;;8.31;100.00;99174.16;2043044;29;20198;-68
2022/05/11 01:56:28;;;;;;;21.25;19.05;;;;;;;8.30;100.00;99177.88;2045103;29;20215;-68
2022/05/11 01:57:29;;;;;;;21.20;19.02;;;;;;;8.28;100.00;99172.84;2042993;29;20199;-68
2022/05/11 01:58:31;;;;;;;22.00;19.77;;;;;;;8.26;100.00;99171.53;2044041;29;20277;-68
2022/05/11 01:59:34;;;;;;;22.67;20.02;;;;;;;8.25;100.00;99167.28;2036174;29;20506;-68
2022/05/11 02:00:37;;;;;;;22.70;20.25;;;;;;;8.25;100.00;99169.94;2042472;29;20195;-68
2022/05/11 02:01:40;;;;;;;22.05;20.00;;;;;;;8.22;100.00;99168.63;2052698;29;20194;-68
2022/05/11 02:02:42;;;;;;;23.13;19.77;;;;;;;8.17;100.00;99166.03;2034604;29;20206;-67
2022/05/11 02:03:43;;;;;;;21.80;19.77;;;;;;;8.13;100.00;99164.97;2035176;29;20203;-68
2022/05/11 02:08:49;;;;;;;23.92;21.23;;;;;;;8.14;100.00;99166.56;2042087;29;20203;-67
2022/05/11 02:09:50;;;;;;;22.02;19.77;;;;;;;8.11;100.00;99159.94;2037292;29;20220;-67
2022/05/11 02:10:53;;;;;;;21.60;19.50;;;;;;;8.14;100.00;99161.25;2034347;29;20641;-68
2022/05/11 02:11:55;;;;;;;21.90;19.70;;;;;;;8.13;100.00;99163.09;2045100;29;20226;-68
2022/05/11 02:12:58;;;;;;;26.90;20.92;;;;;;;8.09;100.00;99158.66;2042974;29;20246;-68
2022/05/11 02:13:59;;;;;;;23.63;21.23;;;;;;;8.10;100.00;99161.03;2034096;29;20207;-68
2022/05/11 02:15:05;;;;;;;21.83;19.92;;;;;;;8.10;100.00;99165.53;2037565;29;20262;-68
2022/05/11 02:16:06;;;;;;;21.50;19.60;;;;;;;8.09;100.00;99166.63;2042752;29;20218;-67
2022/05/11 02:17:08;;;;;;;22.15;20.13;;;;;;;8.07;100.00;99160.75;2036228;29;20298;-68
2022/05/11 02:18:09;;;;;;;22.02;19.92;;;;;;;8.06;100.00;99159.97;2034769;29;20655;-68
2022/05/11 02:19:11;;;;;;;22.10;20.10;;;;;;;8.06;100.00;99159.19;2042742;29;20278;-68
2022/05/11 02:20:14;;;;;;;22.52;20.20;;;;;;;8.07;100.00;99161.56;2045197;29;20597;-68
2022/05/11 02:21:16;;;;;;;21.70;19.60;;;;;;;8.07;100.00;99158.91;2042139;29;20253;-68
2022/05/11 02:22:17;;;;;;;22.25;20.05;;;;;;;8.06;100.00;99154.66;2044259;29;20191;-68
2022/05/11 02:23:21;;;;;;;22.63;20.33;;;;;;;8.02;100.00;99147.53;2043408;29;20290;-68
2022/05/11 02:24:23;;;;;;;22.02;19.92;;;;;;;8.01;100.00;99145.94;2034129;29;20204;-68
2022/05/11 02:25:25;;;;;;;21.58;19.60;;;;;;;8.04;100.00;99153.34;2036863;29;20228;-68
2022/05/11 02:26:26;;;;;;;21.55;19.20;;;;;;;8.03;100.00;99149.91;2033902;29;20302;-67
2022/05/11 02:27:33;;;;;;;22.87;20.50;;;;;;;8.01;100.00;99140.63;2035710;29;20679;-68
2022/05/11 02:28:36;;;;;;;22.52;20.23;;;;;;;8.01;100.00;99141.44;2034864;29;20287;-68
2022/05/11 02:29:37;;;;;;;22.70;20.40;;;;;;;8.01;100.00;99144.09;2034178;29;20219;-68
2022/05/11 02:30:40;;;;;;;25.35;21.65;;;;;;;8.01;100.00;99145.94;2045187;29;20680;-67
2022/05/11 02:31:41;;;;;;;23.35;20.58;;;;;;;8.04;100.00;99142.72;2042684;29;20222;-68
2022/05/11 02:32:44;;;;;;;26.02;20.60;;;;;;;8.05;100.00;99142.44;2043400;29;20218;-68
2022/05/11 02:33:45;;;;;;;25.92;21.70;;;;;;;8.02;100.00;99147.53;2044048;29;20589;-67
2022/05/11 02:36:07;;;;;;;23.00;20.83;;;;;;;8.02;100.00;99152.84;2038397;29;20272;-68
2022/05/11 02:37:08;;;;;;;29.17;21.40;;;;;;;8.01;100.00;99148.59;2034093;29;20568;-67
2022/05/11 02:38:12;;;;;;;28.08;21.90;;;;;;;8.01;100.00;99146.75;2035444;29;20231;-67
2022/05/11 02:39:13;;;;;;;22.92;20.88;;;;;;;8.07;100.00;99153.59;2034818;29;20195;-68
2022/05/11 02:40:17;;;;;;;23.03;20.70;;;;;;;8.10;100.00;99154.91;2034093;29;20210;-67
2022/05/11 02:41:18;;;;;;;24.40;22.00;;;;;;;8.11;100.00;99145.88;2027974;29;20460;-68
2022/05/11 02:42:22;;;;;;;23.85;21.33;;;;;;;8.12;100.00;99134.94;2034441;29;20216;-68
2022/05/11 02:43:26;;;;;;;25.45;22.25;;;;;;;8.20;100.00;99141.53;2043567;29;20195;-68
2022/05/11 02:44:27;;;;;;;26.70;21.77;;;;;;;8.23;100.00;99138.31;2034607;29;20242;-69
2022/05/11 02:45:31;;;;;;;24.77;21.57;;;;;;;8.20;100.00;99138.88;2034125;29;20691;-69
2022/05/11 02:46:33;;;;;;;24.45;21.52;;;;;;;8.25;100.00;99140.69;2035730;29;20211;-69
2022/05/11 02:47:34;;;;;;;24.73;21.20;;;;;;;8.26;100.00;99145.75;2034127;29;20282;-69
2022/05/11 02:48:37;;;;;;;25.27;21.77;;;;;;;8.28;100.00;99146.25;2051326;29;20202;-69
2022/05/11 02:49:39;;;;;;;24.90;21.77;;;;;;;8.25;100.00;99140.69;2050867;29;20201;-69
2022/05/11 02:50:42;;;;;;;24.87;20.73;;;;;;;8.34;100.00;99145.16;2033994;29;20250;-69
2022/05/11 02:51:44;;;;;;;24.80;20.50;;;;;;;8.37;100.00;99141.97;2036997;29;20231;-69
2022/05/11 02:52:46;;;;;;;26.27;20.58;;;;;;;8.35;100.00;99143.31;2033621;29;20651;-70
2022/05/11 02:53:47;;;;;;;24.10;21.50;;;;;;;8.27;100.00;99142.03;2043137;29;20274;-69
2022/05/11 02:54:49;;;;;;;23.03;20.57;;;;;;;8.26;100.00;99140.44;2052089;29;20209;-69
2022/05/11 02:55:53;;;;;;;22.58;20.00;;;;;;;8.21;100.00;99137.81;2033606;29;20211;-69
2022/05/11 02:56:56;;;;;;;23.58;21.17;;;;;;;8.21;100.00;99137.81;2030058;29;20201;-69
2022/05/11 02:57:56;;;;;;;23.15;20.13;;;;;;;8.19;100.00;99142.63;2025662;29;20808;-69
2022/05/11 02:59:00;;;;;;;24.00;20.43;;;;;;;8.22;100.00;99142.06;2034028;29;20596;-69
2022/05/11 03:00:04;;;;;;;22.13;19.88;;;;;;;8.20;100.00;99138.88;2036431;29;20199;-69
2022/05/11 03:01:06;;;;;;;21.88;19.55;;;;;;;8.16;100.00;99137.84;2034368;29;20196;-69
2022/05/11 03:02:10;;;;;;;22.35;20.35;;;;;;;8.17;100.00;99139.44;2044901;29;20213;-69
2022/05/11 03:03:14;;;;;;;23.60;19.48;;;;;;;8.13;100.00;99146.38;2033884;29;20282;-69
2022/05/11 03:04:15;;;;;;;22.50;20.10;;;;;;;8.13;100.00;99147.16;2034668;29;20210;-69
2022/05/11 03:05:17;;;;;;;21.60;19.43;;;;;;;8.06;100.00;99138.72;2044477;29;20250;-69
2022/05/11 03:06:18;;;;;;;23.65;20.50;;;;;;;8.05;100.00;99147.75;2041385;29;20699;-69
2022/05/11 03:07:22;;;;;;;26.00;21.45;;;;;;;8.05;100.00;99146.97;2045687;29;20187;-69
2022/05/11 03:08:24;;;;;;;23.17;20.55;;;;;;;8.01;100.00;99138.75;2041426;29;20242;-69
2022/05/11 03:09:26;;;;;;;23.88;21.17;;;;;;;7.96;100.00;99143.31;2033822;29;20191;-69
2022/05/11 03:10:28;;;;;;;25.05;22.25;;;;;;;7.93;100.00;99137.47;2037410;29;20294;-69
2022/05/11 03:11:29;;;;;;;24.23;21.52;;;;;;;8.01;100.00;99137.97;2042359;29;20281;-69
2022/05/11 03:12:32;;;;;;;23.97;21.47;;;;;;;8.00;100.00;99139.03;2045550;29;20179;-69
2022/05/11 03:13:35;;;;;;;25.88;20.65;;;;;;;7.99;100.00;99137.44;2042849;29;20223;-69
2022/05/11 03:14:38;;;;;;;24.88;21.73;;;;;;;7.97;100.00;99143.03;2042414;29;20195;-69
2022/05/11 03:15:41;;;;;;;23.33;20.88;;;;;;;7.97;100.00;99140.38;2044188;29;20205;-69
2022/05/11 03:16:44;;;;;;;25.05;21.83;;;;;;;7.96;100.00;99138.78;2033025;29;20259;-69
2022/05/11 03:17:45;;;;;;;23.73;21.20;;;;;;;7.91;100.00;99144.94;2027192;29;20212;-69
2022/05/11 03:18:46;;;;;;;25.40;21.33;;;;;;;7.89;100.00;99138.31;2034269;29;20291;-69
2022/05/11 03:19:47;;;;;;;23.63;20.92;;;;;;;7.88;100.00;99142.81;2042344;29;20195;-69
2022/05/11 03:20:50;;;;;;;24.52;21.95;;;;;;;7.80;100.00;99140.75;2043296;29;20194;-69
2022/05/11 03:21:52;;;;;;;24.58;21.27;;;;;;;7.85;100.00;99140.72;2042099;29;20231;-69
2022/05/11 03:22:54;;;;;;;24.15;21.75;;;;;;;7.91;100.00;99136.97;2044188;29;20566;-69
2022/05/11 03:23:56;;;;;;;24.33;21.85;;;;;;;7.95;100.00;99139.88;2043173;29;20583;-69
2022/05/11 03:24:57;;;;;;;27.27;21.90;;;;;;;7.94;100.00;99146.25;2041602;29;20279;-69
2022/05/11 03:25:58;;;;;;;27.63;21.90;;;;;;;8.02;100.00;99139.56;2043012;29;20442;-69
2022/05/11 03:27:00;;;;;;;24.70;22.07;;;;;;;8.06;100.00;99143.22;2042414;29;20206;-69
2022/05/11 03:28:03;;;;;;;23.52;21.13;;;;;;;8.04;100.00;99134.75;2033408;29;20203;-69
2022/05/11 03:29:07;;;;;;;24.45;21.95;;;;;;;8.03;100.00;99141.16;2035765;29;20212;-69
2022/05/11 03:30:13;;;;;;;24.38;21.80;;;;;;;8.08;100.00;99143.75;2042189;29;20222;-69
2022/05/11 03:31:15;;;;;;;26.38;22.40;;;;;;;8.13;100.00;99138.41;2045554;29;20206;-69
2022/05/11 03:34:57;;;;;;;24.60;21.85;;;;;;;8.30;100.00;99144.13;2041930;29;20203;-69
2022/05/11 03:36:06;;;;;;;24.40;21.80;;;;;;;8.38;100.00;99135.56;2034482;29;20231;-69
2022/05/11 03:37:13;;;;;;;24.73;22.17;;;;;;;8.36;100.00;99131.63;2035922;29;20195;-69
2022/05/11 03:38:14;;;;;;;24.55;21.98;;;;;;;8.40;100.00;99137.94;2033169;29;20213;-69
2022/05/11 03:39:16;;;;;;;25.07;22.37;;;;;;;8.41;100.00;99140.31;2037090;29;20220;-69
2022/05/11 03:40:18;;;;;;;25.25;21.45;;;;;;;8.44;100.00;99129.16;2041738;29;20191;-69
2022/05/11 03:41:21;;;;;;;24.27;21.88;;;;;;;8.47;100.00;99136.56;2042939;29;20242;-69
2022/05/11 03:42:28;;;;;;;24.83;22.20;;;;;;;8.50;100.00;99135.19;2041705;29;20296;-69
2022/05/11 03:43:33;;;;;;;25.80;21.85;;;;;;;8.58;100.00;99134.59;2041745;29;20187;-69
2022/05/11 03:44:34;;;;;;;30.73;22.15;;;;;;;8.57;100.00;99133.00;2042520;29;20211;-69
2022/05/11 03:45:37;;;;;;;24.60;22.20;;;;;;;8.61;100.00;99134.03;2041292;29;20203;-69
2022/05/11 03:46:38;;;;;;;24.13;21.67;;;;;;;8.63;100.00;99133.75;2044175;29;20673;-69
2022/05/11 03:47:41;;;;;;;29.02;22.85;;;;;;;8.66;100.00;99136.63;2042149;29;20258;-69
2022/05/11 03:48:42;;;;;;;24.48;22.20;;;;;;;8.65;100.00;99134.25;2048493;29;20292;-69
2022/05/11 03:49:44;;;;;;;24.13;21.88;;;;;;;8.71;100.00;99141.91;2052491;29;20194;-69
2022/05/11 03:50:47;;;;;;;24.45;21.95;;;;;;;8.72;100.00;99124.88;2042192;29;20577;-69
2022/05/11 03:51:50;;;;;;;27.25;22.23;;;;;;;8.76;100.00;99131.22;2033572;29;20375;-69
2022/05/11 03:52:51;;;;;;;26.85;22.15;;;;;;;8.80;100.00;99133.31;2034071;29;20196;-69
2022/05/11 03:53:53;;;;;;;26.73;22.42;;;;;;;8.82;100.00;99134.63;2041382;29;20195;-69
2022/05/11 03:54:54;;;;;;;27.55;23.05;;;;;;;8.85;100.00;99134.03;2042681;29;20282;-69
2022/05/11 03:55:56;;;;;;;24.00;21.77;;;;;;;8.93;100.00;99144.06;2042222;29;20199;-69
2022/05/11 03:56:57;;;;;;;30.23;22.65;;;;;;;8.98;100.00;99137.91;2034160;29;20195;-69
2022/05/11 03:58:00;;;;;;;26.40;23.03;;;;;;;9.01;100.00;99138.13;2026995;29;20204;-69
2022/05/11 03:59:01;;;;;;;28.05;23.20;;;;;;;9.05;100.00;99139.16;2033742;29;20195;-69
2022/05/11 04:00:04;;;;;;;25.17;22.55;;;;;;;9.12;100.00;99135.34;2045002;29;20195;-69
2022/05/11 04:01:19;;;;;;;24.27;21.95;;;;;;;9.20;100.00;99132.06;2042126;29;20284;-69
2022/05/11 04:02:20;;;;;;;23.70;21.30;;;;;;;9.30;100.00;99139.94;2042811;29;20207;-69
2022/05/11 04:03:22;;;;;;;24.52;22.02;;;;;;;9.38;100.00;99133.97;2042794;29;20247;-69
2022/05/11 04:04:23;;;;;;;25.88;22.33;;;;;;;9.47;100.00;99140.25;2041988;29;20274;-69
2022/05/11 04:05:28;;;;;;;24.00;21.50;;;;;;;9.57;100.00;99131.34;2044691;29;20199;-69
2022/05/11 04:06:30;;;;;;;24.90;21.92;;;;;;;9.60;100.00;99134.22;2040185;29;20231;-69
2022/05/11 04:07:32;;;;;;;24.92;22.30;;;;;;;9.63;100.00;99130.97;2041611;29;20249;-69
2022/05/11 04:08:34;;;;;;;27.10;23.27;;;;;;;9.70;100.00;99135.94;2042634;29;20218;-69
2022/05/11 04:09:36;;;;;;;32.03;24.63;;;;;;;9.73;100.00;99123.91;2041510;29;20750;-69
2022/05/11 04:10:38;;;;;;;27.53;23.70;;;;;;;9.78;100.00;99131.84;2044894;29;20214;-69
2022/05/11 04:11:41;;;;;;;29.13;24.02;;;;;;;9.85;100.00;99137.59;2042018;29;20673;-69
2022/05/11 04:12:44;;;;;;;26.60;23.67;;;;;;;9.92;100.00;99130.03;2041505;29;20681;-69
2022/05/11 04:13:45;;;;;;;26.58;23.77;;;;;;;9.95;100.00;99134.78;2044106;29;20198;-69
2022/05/11 04:14:46;;;;;;;27.48;22.65;;;;;;;9.97;100.00;99129.94;2033669;29;20207;-69
2022/05/11 04:15:51;;;;;;;27.17;23.97;;;;;;;10.01;100.00;99138.97;2028584;29;20208;-69
2022/05/11 04:16:57;;;;;;;26.85;23.92;;;;;;;10.05;100.00;99129.28;2034464;29;20187;-69
2022/05/11 04:17:58;;;;;;;26.08;23.33;;;;;;;10.08;100.00;99139.38;2042212;29;20187;-69
2022/05/11 04:19:01;;;;;;;30.63;23.85;;;;;;;10.15;100.00;99139.78;2044536;29;20202;-69
2022/05/11 04:20:04;;;;;;;25.70;23.30;;;;;;;10.19;100.00;99140.81;2041975;29;20203;-69
2022/05/11 04:21:07;;;;;;;25.35;22.98;;;;;;;10.27;100.00;99141.25;2045248;29;20198;-69
2022/05/11 04:22:10;;;;;;;25.92;23.02;;;;;;;10.28;100.00;99135.63;2042008;29;20184;-69
2022/05/11 04:23:13;;;;;;;26.42;23.67;;;;;;;10.39;100.00;99138.91;2042200;29;20525;-69
2022/05/11 04:24:14;;;;;;;30.80;23.33;;;;;;;10.40;100.00;99135.16;2036928;29;20257;-69
2022/05/11 04:25:16;;;;;;;25.57;21.83;;;;;;;10.47;100.00;99135.56;2025891;29;20204;-69
2022/05/11 04:26:18;;;;;;;24.02;21.58;;;;;;;10.51;100.00;99141.91;2041154;29;20678;-69
2022/05/11 04:27:21;;;;;;;26.92;22.50;;;;;;;10.55;100.00;99136.78;2049146;29;20728;-69
2022/05/11 04:28:23;;;;;;;25.77;23.08;;;;;;;10.60;100.00;99139.34;2041920;29;20246;-69
2022/05/11 04:29:24;;;;;;;26.52;23.08;;;;;;;10.65;100.00;99136.59;2045191;29;20701;-70
2022/05/11 04:30:31;;;;;;;30.27;24.25;;;;;;;10.69;100.00;99134.94;2041851;29;20197;-69
2022/05/11 04:31:32;;;;;;;29.45;24.58;;;;;;;10.75;100.00;99136.41;2044710;29;20202;-70
2022/05/11 04:32:38;;;;;;;25.47;22.80;;;;;;;10.81;100.00;99134.44;2041398;29;20195;-69
2022/05/11 04:33:39;;;;;;;27.98;22.55;;;;;;;10.80;100.00;99132.88;2041935;29;20642;-69
2022/05/11 04:34:42;;;;;;;25.52;22.42;;;;;;;10.87;100.00;99133.28;2045283;29;20187;-69
2022/05/11 04:35:43;;;;;;;25.20;22.70;;;;;;;10.93;100.00;99140.09;2041222;29;20202;-69
2022/05/11 04:36:45;;;;;;;24.93;22.37;;;;;;;10.97;100.00;99138.41;2043756;29;20230;-69
2022/05/11 04:37:46;;;;;;;27.52;21.80;;;;;;;10.98;100.00;99129.31;2041549;29;20226;-69
2022/05/11 04:38:48;;;;;;;26.30;22.43;;;;;;;10.97;100.00;99141.09;2041858;29;20721;-69
2022/05/11 04:39:50;;;;;;;26.02;21.67;;;;;;;11.03;100.00;99138.03;2044092;29;20255;-69
2022/05/11 04:40:53;;;;;;;25.40;21.83;;;;;;;11.08;100.00;99145.13;2041423;29;20183;-69
2022/05/11 04:41:54;;;;;;;26.05;22.10;;;;;;;11.13;100.00;99142.38;2035393;29;20230;-69
2022/05/11 04:42:56;;;;;;;27.73;22.33;;;;;;;11.10;100.00;99137.63;2034633;29;20694;-69
2022/05/11 04:43:57;;;;;;;24.55;21.95;;;;;;;11.17;100.00;99146.03;2041391;29;20199;-69
2022/05/11 04:44:59;;;;;;;24.77;21.92;;;;;;;11.18;100.00;99142.25;2036330;29;20196;-69
2022/05/11 04:46:00;;;;;;;24.10;21.83;;;;;;;11.22;100.00;99139.81;2033406;29;20208;-69
2022/05/11 04:47:06;;;;;;;30.27;21.58;;;;;;;11.29;100.00;99140.16;2042251;29;20203;-69
2022/05/11 04:48:11;;;;;;;25.90;23.02;;;;;;;11.35;100.00;99141.66;2043373;29;20176;-69
2022/05/11 04:49:19;;;;;;;29.55;22.35;;;;;;;11.39;100.00;99137.31;2041999;29;20199;-69
2022/05/11 04:50:21;;;;;;;33.90;22.80;;;;;;;11.49;100.00;99138.97;2044436;29;20179;-70
2022/05/11 04:51:23;;;;;;;25.38;22.70;;;;;;;11.57;100.00;99143.63;2040775;29;20237;-69
2022/05/11 04:52:25;;;;;;;32.85;22.00;;;;;;;11.61;100.00;99140.03;2044195;29;20196;-69
2022/05/11 04:53:27;;;;;;;32.20;23.40;;;;;;;11.64;100.00;99138.66;2042160;29;20229;-69
2022/05/11 04:54:29;;;;;;;26.88;22.95;;;;;;;11.66;100.00;99149.03;2041749;29;20661;-69
2022/05/11 04:55:31;;;;;;;24.75;22.15;;;;;;;11.69;100.00;99143.88;2043376;29;20227;-69
2022/05/11 04:56:32;;;;;;;35.13;22.38;;;;;;;11.71;100.00;99149.72;2049113;29;20213;-69
2022/05/11 04:57:34;;;;;;;25.40;21.60;;;;;;;11.77;100.00;99145.06;2042632;29;20207;-70
2022/05/11 04:58:35;;;;;;;24.48;21.60;;;;;;;11.81;100.00;99140.69;2034349;29;20224;-69